^^
Grace C. Lehan Memorial Weather Station Historical Data
Daily Summary for August 16, 2021 Units:  English    Metric   Both
Daily Weekly Monthly Yearly
  High: Low: Average:
Temperature: 45.3 °F 34.4 °F 39.8 °F
Dew Point: 44.2 °F 30.5 °F 37.6 °F
Humidity: 97.4% 79.9% 92%
Wind Speed: 8.5mph 0mph 1.4mph
Wind Gust: 19mph - -
Wind- - WSW
Pressure: 29.84 in 29.27 in -
Precipitation: 1.45 in    
 
 
Tabular Data for August 16, 2021
Time Temperature Dew Point Pressure Wind Wind Speed Wind Gust Humidity Rainfall Rate (Hourly) solar
00:04 39.4 °F 33.8 °F 29.83 in NE 2.7 mph 12 mph 79.9% 0.02 in 0 W/m2
00:09 39.2 °F 34 °F 29.83 in NE 2.1 mph 10 mph 81.3% 0.02 in 0 W/m2
00:14 39 °F 34 °F 29.83 in ENE 1.1 mph 10 mph 82% 0.02 in 0 W/m2
00:19 38.9 °F 34 °F 29.84 in NE 1.4 mph 10 mph 82.4% 0.02 in 0 W/m2
00:24 38.8 °F 34.1 °F 29.84 in NE 0.6 mph 10 mph 83% 0.02 in 0 W/m2
00:29 38.7 °F 34.1 °F 29.84 in NE 2.5 mph 10 mph 83.3% 0.02 in 0 W/m2
00:34 38.6 °F 34.2 °F 29.83 in NE 1.4 mph 10 mph 84% 0.03 in 0 W/m2
00:39 38.6 °F 34.2 °F 29.83 in NE 0.3 mph 10 mph 84.1% 0.03 in 0 W/m2
00:44 38.5 °F 34.4 °F 29.83 in NE 0.1 mph 10 mph 85% 0.04 in 0 W/m2
00:49 38.4 °F 34.5 °F 29.83 in NE 0.7 mph 10 mph 85.6% 0.04 in 0 W/m2
00:54 38.3 °F 34.5 °F 29.81 in NE 2.4 mph 10 mph 86% 0.05 in 0 W/m2
00:59 38.1 °F 34.4 °F 29.81 in ENE 1.7 mph 10 mph 86.4% 0.05 in 0 W/m2
01:04 38 °F 34.4 °F 29.81 in NE 1.6 mph 10 mph 87% 0.05 in 0 W/m2
01:09 37.9 °F 34.5 °F 29.81 in NNE 1.3 mph 7 mph 87.5% 0.04 in 0 W/m2
01:14 37.8 °F 34.6 °F 29.80 in NNE 0.3 mph 7 mph 88% 0.04 in 0 W/m2
01:19 37.7 °F 34.7 °F 29.81 in NNE 0.5 mph 7 mph 88.6% 0.05 in 0 W/m2
01:24 37.6 °F 34.7 °F 29.82 in Calm   7 mph 89% 0.06 in 0 W/m2
01:29 37.5 °F 34.6 °F 29.84 in NNW 0.7 mph 7 mph 89% 0.06 in 0 W/m2
01:34 37.5 °F 34.5 °F 29.84 in NW 0.2 mph 7 mph 89% 0.07 in 0 W/m2
01:39 37.3 °F 34.6 °F 29.83 in NW 2 mph 6 mph 89.8% 0.07 in 0 W/m2
01:44 37.1 °F 34.4 °F 29.82 in North 2.2 mph 6 mph 90% 0.08 in 0 W/m2
01:49 36.9 °F 34.2 °F 29.81 in NNE 1.8 mph 6 mph 90% 0.09 in 0 W/m2
01:54 36.7 °F 34 °F 29.80 in NE 1.5 mph 11 mph 90% 0.10 in 0 W/m2
01:59 36.5 °F 34.1 °F 29.80 in ENE 1 mph 11 mph 90.9% 0.11 in 0 W/m2
02:04 36.5 °F 34.1 °F 29.80 in NE 0.9 mph 11 mph 91% 0.11 in 0 W/m2
02:09 36.4 °F 34 °F 29.79 in North 1.8 mph 6 mph 91% 0.10 in 0 W/m2
02:14 36.4 °F 34.3 °F 29.79 in NNW 2.1 mph 9 mph 92% 0.11 in 0 W/m2
02:19 36.4 °F 34.3 °F 29.78 in North 0.2 mph 9 mph 92% 0.12 in 0 W/m2
02:24 36.4 °F 34.3 °F 29.78 in NE 3 mph 9 mph 92% 0.14 in 0 W/m2
02:29 36.4 °F 34.3 °F 29.76 in NE 2.7 mph 9 mph 92% 0.15 in 0 W/m2
02:34 36.4 °F 34.4 °F 29.76 in NNE 1.5 mph 9 mph 92.2% 0.16 in 0 W/m2
02:39 36.4 °F 34.5 °F 29.75 in NE 1.8 mph 6 mph 93% 0.16 in 0 W/m2
02:44 36.3 °F 34.5 °F 29.73 in NNE 2.1 mph 9 mph 93% 0.17 in 0 W/m2
02:49 36.3 °F 34.5 °F 29.73 in North 0.5 mph 9 mph 93% 0.18 in 0 W/m2
02:54 36.4 °F 34.5 °F 29.73 in NNE 0.2 mph 9 mph 93% 0.18 in 0 W/m2
02:59 36.4 °F 34.6 °F 29.72 in NNW 0.6 mph 9 mph 93.1% 0.20 in 0 W/m2
03:04 36.4 °F 34.6 °F 29.72 in Calm   9 mph 93.1% 0.20 in 0 W/m2
03:09 36.5 °F 34.8 °F 29.72 in Calm   2 mph 93.6% 0.21 in 0 W/m2
03:14 36.5 °F 34.9 °F 29.72 in NNE 0.9 mph 4 mph 94% 0.24 in 0 W/m2
03:19 36.6 °F 35 °F 29.70 in North 1 mph 5 mph 94% 0.26 in 0 W/m2
03:24 36.6 °F 35.1 °F 29.70 in NNW 1.2 mph 9 mph 94% 0.29 in 0 W/m2
03:29 36.7 °F 35.1 °F 29.69 in North 2 mph 9 mph 94% 0.32 in 0 W/m2
03:34 36.7 °F 35.2 °F 29.67 in NNW 0.7 mph 9 mph 94% 0.32 in 0 W/m2
03:39 36.8 °F 35.2 °F 29.68 in NNW 1.9 mph 11 mph 94% 0.29 in 0 W/m2
03:44 36.8 °F 35.2 °F 29.68 in NNW 1.8 mph 11 mph 94% 0.30 in 0 W/m2
03:49 36.8 °F 35.3 °F 29.68 in North 1 mph 11 mph 94% 0.32 in 0 W/m2
03:54 36.9 °F 35.3 °F 29.69 in NNW 1.5 mph 11 mph 94% 0.34 in 0 W/m2
03:59 37 °F 35.4 °F 29.69 in NNW 0.6 mph 11 mph 94% 0.35 in 0 W/m2
04:00 37 °F 35.4 °F 29.69 in Calm   11 mph 94% 0.35 in 0 W/m2
04:09 37 °F 35.7 °F 29.68 in NW 1.3 mph 10 mph 95% 0.32 in 0 W/m2
04:14 37.1 °F 35.5 °F 29.68 in NW 1.4 mph 10 mph 94.1% 0.34 in 0 W/m2
04:19 37.1 °F 35.6 °F 29.67 in NNW 2.1 mph 10 mph 94.2% 0.36 in 0 W/m2
04:24 37.1 °F 35.8 °F 29.67 in North 0.9 mph 10 mph 94.9% 0.38 in 0 W/m2
04:29 37.2 °F 35.9 °F 29.67 in NNW 1.5 mph 10 mph 95% 0.41 in 0 W/m2
04:34 37.2 °F 35.9 °F 29.67 in NNW 1.1 mph 10 mph 95% 0.41 in 0 W/m2
04:39 37.3 °F 36 °F 29.66 in North 0.9 mph 5 mph 95% 0.29 in 0 W/m2
04:44 37.3 °F 36 °F 29.65 in North 1.5 mph 10 mph 95% 0.32 in 0 W/m2
04:49 37.4 °F 36.1 °F 29.65 in NW 0.8 mph 10 mph 95% 0.35 in 0 W/m2
04:54 37.5 °F 36.2 °F 29.66 in North 0.7 mph 10 mph 95% 0.36 in 0 W/m2
04:59 37.5 °F 36.2 °F 29.65 in North 0.3 mph 10 mph 95% 0.37 in 0 W/m2
05:04 37.5 °F 36.2 °F 29.64 in NNW 2.1 mph 10 mph 95% 0.37 in 0 W/m2
05:09 37.5 °F 36.2 °F 29.62 in North 2.5 mph 10 mph 95% 0.29 in 0 W/m2
05:14 37.5 °F 36.2 °F 29.61 in NNE 0.7 mph 10 mph 95% 0.30 in 0 W/m2
05:19 37.5 °F 36.2 °F 29.60 in NNE 1.1 mph 10 mph 95% 0.31 in 0 W/m2
05:24 37.5 °F 36.2 °F 29.59 in North 2.5 mph 10 mph 95% 0.33 in 0 W/m2
05:29 37.5 °F 36.2 °F 29.59 in North 2.4 mph 10 mph 95% 0.35 in 0 W/m2
05:34 37.5 °F 36.2 °F 29.58 in North 2.3 mph 11 mph 95% 0.35 in 0 W/m2
05:39 37.5 °F 36.2 °F 29.58 in North 1.7 mph 11 mph 95% 0.25 in 0 W/m2
05:44 37.5 °F 36.2 °F 29.59 in North 2.1 mph 11 mph 95% 0.26 in 0 W/m2
05:49 37.5 °F 36.2 °F 29.59 in NNW 2.5 mph 11 mph 95% 0.27 in 0 W/m2
05:54 37.6 °F 36.3 °F 29.58 in North 1.8 mph 11 mph 95% 0.29 in 0 W/m2
05:59 37.7 °F 36.4 °F 29.57 in NE 1.6 mph 11 mph 95% 0.30 in 0 W/m2
06:04 37.7 °F 36.4 °F 29.57 in NNW 1.8 mph 11 mph 95% 0.30 in 0 W/m2
06:09 37.8 °F 36.5 °F 29.56 in North 2.5 mph 7 mph 95% 0.19 in 0 W/m2
06:14 37.8 °F 36.5 °F 29.56 in NNW 2.8 mph 10 mph 95% 0.21 in 0 W/m2
06:19 37.8 °F 36.5 °F 29.55 in NNW 1.2 mph 10 mph 95% 0.22 in 0 W/m2
06:24 37.9 °F 36.6 °F 29.55 in NNE 0.9 mph 10 mph 95% 0.24 in 0 W/m2
06:29 37.9 °F 36.6 °F 29.54 in North 1.4 mph 10 mph 95% 0.25 in 0 W/m2
06:34 37.9 °F 36.6 °F 29.53 in North 1.4 mph 10 mph 95% 0.25 in 0 W/m2
06:39 38 °F 36.7 °F 29.53 in North 1.4 mph 4 mph 95% 0.20 in 0 W/m2
06:44 38 °F 36.7 °F 29.53 in North 1.7 mph 4 mph 95% 0.21 in 0 W/m2
06:49 38 °F 36.7 °F 29.52 in North 1.5 mph 6 mph 95% 0.23 in 0 W/m2
06:52 38 °F 36.7 °F 29.52 in NNW 1.5 mph 6 mph 95% 0.24 in 0 W/m2
07:00 37.9 °F 36.6 °F 29.51 in North 2 mph 12 mph 95% 0.36 in 0 W/m2
07:30 38.2 °F 37.2 °F 29.49 in NNW 2 mph 13 mph 96% 0.40 in 0 W/m2
08:04 38.5 °F 37.4 °F 29.49 in NE 4.1 mph 13 mph 96% 0.40 in 0 W/m2
08:09 38.3 °F 37.3 °F 29.43 in ENE 8.5 mph 18 mph 96% 0.32 in 5 W/m2
08:14 38.1 °F 37.1 °F 29.35 in NE 5.8 mph 19 mph 96% 0.33 in 7 W/m2
08:19 38.2 °F 37.2 °F 29.36 in NW 5.4 mph 19 mph 96% 0.33 in 7 W/m2
08:24 38.3 °F 37.3 °F 29.36 in North 3.1 mph 19 mph 96% 0.33 in 7 W/m2
08:29 38.4 °F 37.4 °F 29.36 in NNW 4.2 mph 19 mph 96% 0.33 in 7 W/m2
08:34 38.6 °F 37.5 °F 29.37 in NNW 2.3 mph 19 mph 96% 0.33 in 7 W/m2
08:39 38.6 °F 37.6 °F 29.38 in NW 3.2 mph 11 mph 96% 0.01 in 9 W/m2
08:44 38.8 °F 37.7 °F 29.37 in NNW 1.1 mph 11 mph 96% 0.01 in 11 W/m2
08:49 38.8 °F 37.8 °F 29.38 in NW 2.6 mph 11 mph 96% 0.01 in 12 W/m2
08:54 39 °F 38 °F 29.38 in NW 3.5 mph 16 mph 96% 0.01 in 11 W/m2
08:59 39.2 °F 38.1 °F 29.38 in NNW 3.2 mph 16 mph 96% 0.01 in 23 W/m2
09:04 39.3 °F 38.3 °F 29.37 in NW 1 mph 16 mph 96% 0.01 in 25 W/m2
09:09 39.6 °F 38.5 °F 29.38 in NNW 1.4 mph 11 mph 96% 0.00 in 19 W/m2
09:14 39.8 °F 38.7 °F 29.38 in NNW 0.9 mph 11 mph 96% 0.00 in 18 W/m2
09:19 39.9 °F 38.9 °F 29.38 in NNW 1 mph 11 mph 96% 0.00 in 18 W/m2
09:24 40.1 °F 39 °F 29.37 in NNW 1.9 mph 11 mph 96% 0.00 in 16 W/m2
09:29 40.1 °F 39 °F 29.36 in NNW 4.2 mph 11 mph 96% 0.00 in 26 W/m2
09:34 40 °F 38.9 °F 29.36 in North 1.1 mph 11 mph 96% 0.00 in 26 W/m2
09:39 39.9 °F 38.9 °F 29.35 in NNW 1.4 mph 11 mph 96% 0.00 in 76 W/m2
09:44 40 °F 38.9 °F 29.36 in North 1.9 mph 11 mph 96% 0.00 in 65 W/m2
09:49 40.1 °F 39.1 °F 29.36 in NNW 1.7 mph 11 mph 96% 0.00 in 44 W/m2
09:54 40.2 °F 39.1 °F 29.36 in NW 1.2 mph 11 mph 96% 0.00 in 39 W/m2
09:59 40.2 °F 39.2 °F 29.36 in NW 1.1 mph 11 mph 96% 0.01 in 37 W/m2
10:04 40.2 °F 39.2 °F 29.36 in NW 0.1 mph 11 mph 96% 0.01 in 53 W/m2
10:09 40.3 °F 39.3 °F 29.36 in NW 0.8 mph 3 mph 96% 0.02 in 83 W/m2
10:14 40.4 °F 39.4 °F 29.36 in NNW 0.4 mph 3 mph 96% 0.02 in 98 W/m2
10:19 40.6 °F 39.6 °F 29.35 in NNW 0.4 mph 3 mph 96% 0.03 in 98 W/m2
10:24 40.9 °F 39.8 °F 29.35 in Calm   3 mph 96% 0.03 in 107 W/m2
10:29 41.1 °F 40.4 °F 29.34 in NNW 0.6 mph 4 mph 97.4% 0.03 in 142 W/m2
10:34 41.4 °F 40.4 °F 29.33 in NW 0.3 mph 4 mph 96.3% 0.03 in 148 W/m2
10:39 41.7 °F 40.9 °F 29.33 in NNW 0.9 mph 5 mph 96.7% 0.03 in 155 W/m2
10:44 42 °F 41.1 °F 29.34 in NNW 0.4 mph 5 mph 96.7% 0.03 in 130 W/m2
10:49 42.1 °F 41.1 °F 29.34 in WNW 0.7 mph 5 mph 96.2% 0.03 in 100 W/m2
10:54 42.1 °F 41.1 °F 29.34 in Calm   5 mph 96% 0.04 in 137 W/m2
10:59 42.2 °F 41.1 °F 29.34 in Calm   5 mph 96% 0.04 in 79 W/m2
11:04 42.3 °F 41.3 °F 29.34 in Calm   5 mph 96.4% 0.04 in 81 W/m2
11:09 42.3 °F 41.5 °F 29.34 in Calm     97% 0.03 in 54 W/m2
11:14 42.3 °F 41.5 °F 29.33 in WSW 0.4 mph 4 mph 97% 0.03 in 70 W/m2
11:19 42.3 °F 41.5 °F 29.33 in WSW 0.2 mph 4 mph 97% 0.03 in 79 W/m2
11:24 42.3 °F 41.5 °F 29.33 in WSW 0.1 mph 4 mph 97% 0.03 in 100 W/m2
11:29 42.3 °F 41.5 °F 29.32 in Calm   4 mph 97% 0.03 in 104 W/m2
11:34 42.4 °F 41.5 °F 29.32 in West 0.3 mph 4 mph 96.7% 0.03 in 100 W/m2
11:39 42.6 °F 41.5 °F 29.32 in Calm   2 mph 96% 0.01 in 95 W/m2
11:44 42.7 °F 41.7 °F 29.32 in Calm   2 mph 96.2% 0.01 in 88 W/m2
11:49 42.9 °F 42.1 °F 29.31 in West 0.1 mph 2 mph 97% 0.01 in 84 W/m2
11:54 43 °F 42.2 °F 29.31 in West 0.1 mph 2 mph 97% 0.01 in 127 W/m2
11:59 43.2 °F 42.4 °F 29.30 in Calm   2 mph 97% 0.01 in 127 W/m2
12:04 43.4 °F 42.6 °F 29.30 in Calm     97% 0.01 in 100 W/m2
12:09 43.5 °F 42.7 °F 29.30 in West 0.3 mph 2 mph 97% 0.02 in 113 W/m2
12:14 43.6 °F 42.8 °F 29.30 in West 0.1 mph 2 mph 97% 0.02 in 95 W/m2
12:19 43.8 °F 43 °F 29.30 in Calm   2 mph 97% 0.02 in 83 W/m2
12:24 43.8 °F 43.1 °F 29.30 in West 0.6 mph 4 mph 97% 0.02 in 91 W/m2
12:29 43.9 °F 43.1 °F 29.30 in West 0.4 mph 4 mph 97% 0.02 in 132 W/m2
12:34 44 °F 43.2 °F 29.29 in West 0.2 mph 4 mph 97% 0.02 in 151 W/m2
12:39 44.1 °F 43.3 °F 29.29 in Calm   2 mph 97% 0.01 in 179 W/m2
12:44 44.2 °F 43.5 °F 29.28 in West 0.3 mph 2 mph 97% 0.01 in 199 W/m2
12:49 44.4 °F 43.6 °F 29.28 in Calm   2 mph 97% 0.01 in 174 W/m2
12:54 44.6 °F 43.8 °F 29.28 in West 0.1 mph 2 mph 97% 0.01 in 120 W/m2
12:59 44.7 °F 43.9 °F 29.29 in West 0.1 mph 2 mph 97% 0.01 in 104 W/m2
13:04 44.7 °F 43.9 °F 29.28 in West 0.2 mph 2 mph 97% 0.01 in 102 W/m2
13:09 44.6 °F 43.8 °F 29.28 in West 0.1 mph 3 mph 97% 0.00 in 76 W/m2
13:13 44.5 °F 43.7 °F 29.28 in West 0.1 mph 3 mph 97% 0.00 in 79 W/m2
13:19 44.4 °F 43.6 °F 29.28 in WSW 1 mph 6 mph 97% 0.00 in 63 W/m2
13:24 44.4 °F 43.6 °F 29.28 in WSW 0.1 mph 6 mph 97% 0.00 in 86 W/m2
13:29 44.4 °F 43.6 °F 29.28 in WSW 0.1 mph 6 mph 97% 0.00 in 116 W/m2
13:34 44.5 °F 43.7 °F 29.28 in Calm   6 mph 97% 0.00 in 158 W/m2
13:39 44.7 °F 43.9 °F 29.28 in WSW 1.1 mph 6 mph 97% 0.00 in 169 W/m2
13:44 44.9 °F 44.1 °F 29.27 in SW 0.3 mph 6 mph 97% 0.00 in 234 W/m2
13:49 45 °F 44.2 °F 29.28 in SW 0.3 mph 6 mph 97% 0.00 in 141 W/m2
13:54 45 °F 44.2 °F 29.28 in SW 1.4 mph 10 mph 97% 0.00 in 132 W/m2
13:59 44.7 °F 43.9 °F 29.28 in SW 1 mph 10 mph 97% 0.00 in 181 W/m2
14:04 44.7 °F 43.9 °F 29.28 in SW 0.3 mph 10 mph 97% 0.00 in 134 W/m2
14:09 44.7 °F 43.9 °F 29.28 in SW 0.1 mph 2 mph 97% 0.00 in 114 W/m2
14:14 44.8 °F 43.9 °F 29.27 in SW 1 mph 6 mph 96.5% 0.00 in 169 W/m2
14:19 44.9 °F 43.8 °F 29.28 in SW 0.4 mph 6 mph 96% 0.00 in 141 W/m2
14:24 44.9 °F 43.8 °F 29.27 in SW 0.5 mph 7 mph 96% 0.00 in 116 W/m2
14:29 44.8 °F 43.7 °F 29.27 in SW 0.2 mph 7 mph 96% 0.00 in 142 W/m2
14:34 44.8 °F 43.8 °F 29.27 in Calm   7 mph 96% 0.00 in 221 W/m2
14:39 45 °F 43.9 °F 29.28 in WSW 0.8 mph 6 mph 96% 0.00 in 218 W/m2
14:44 45.1 °F 44 °F 29.28 in SW 1 mph 6 mph 95.7% 0.00 in 128 W/m2
14:48 45.2 °F 43.9 °F 29.28 in SW 0.3 mph 6 mph 95% 0.00 in 121 W/m2
14:54 45.2 °F 43.8 °F 29.28 in SW 0.8 mph 9 mph 94.7% 0.00 in 134 W/m2
14:59 45.2 °F 43.5 °F 29.28 in SW 0.4 mph 9 mph 94% 0.00 in 134 W/m2
15:04 45.3 °F 43.6 °F 29.28 in SW 0.8 mph 9 mph 93.8% 0.00 in 95 W/m2
15:09 45.3 °F 43.4 °F 29.28 in SW 0.6 mph 4 mph 93% 0.00 in 98 W/m2
15:14 45.2 °F 43.1 °F 29.28 in SW 1.1 mph 5 mph 92.2% 0.00 in 98 W/m2
15:19 45.2 °F 43 °F 29.28 in SW 0.3 mph 5 mph 92% 0.00 in 100 W/m2
15:24 45.2 °F 43 °F 29.28 in SW 0.3 mph 5 mph 92% 0.00 in 35 W/m2
15:29 45.2 °F 43 °F 29.28 in SW 0.7 mph 7 mph 91.9% 0.00 in 28 W/m2
15:34 45.1 °F 42.6 °F 29.28 in SW 0.5 mph 7 mph 91% 0.00 in 69 W/m2
15:39 44.9 °F 42.2 °F 29.28 in SW 1.7 mph 7 mph 90.2% 0.00 in 70 W/m2
15:44 44.7 °F 42 °F 29.29 in WSW 0.1 mph 7 mph 90% 0.00 in 53 W/m2
15:49 44.7 °F 41.9 °F 29.29 in SW 0.4 mph 7 mph 90% 0.00 in 32 W/m2
15:54 44.6 °F 41.8 °F 29.29 in SW 1.1 mph 7 mph 90% 0.00 in 23 W/m2
15:59 44.4 °F 41.5 °F 29.29 in SW 0.1 mph 7 mph 89.3% 0.00 in 18 W/m2
16:00 44.4 °F 41.7 °F 29.29 in Calm   7 mph 90% 0.00 in 12 W/m2
16:09 44.2 °F 41.2 °F 29.29 in WSW 1 mph 6 mph 89% 0.00 in 11 W/m2
16:14 44.1 °F 41 °F 29.29 in West 0.5 mph 6 mph 89% 0.00 in 9 W/m2
16:19 43.9 °F 40.6 °F 29.30 in West 2.3 mph 11 mph 88% 0.00 in 9 W/m2
16:24 43.6 °F 40 °F 29.30 in WNW 0.7 mph 11 mph 87% 0.00 in 5 W/m2
16:29 43.5 °F 39.9 °F 29.30 in WSW 1.5 mph 11 mph 87% 0.00 in 0 W/m2
16:34 43.4 °F 39.8 °F 29.30 in West 1.4 mph 11 mph 87% 0.00 in 0 W/m2
16:39 43.3 °F 39.4 °F 29.30 in WNW 0.7 mph 10 mph 86% 0.00 in 0 W/m2
16:44 43.2 °F 39.3 °F 29.30 in WNW 1.9 mph 10 mph 86% 0.00 in 0 W/m2
16:49 43.2 °F 39.4 °F 29.30 in WNW 0.1 mph 10 mph 86.2% 0.00 in 0 W/m2
16:54 43.2 °F 39.6 °F 29.30 in Calm   10 mph 87% 0.00 in 0 W/m2
16:59 43.2 °F 39.6 °F 29.31 in Calm   10 mph 87% 0.00 in 0 W/m2
17:04 43.1 °F 39.5 °F 29.30 in Calm   10 mph 87% 0.00 in 0 W/m2
17:09 43.1 °F 39.5 °F 29.30 in Calm     87.1% 0.00 in 0 W/m2
17:14 43 °F 39.5 °F 29.30 in West 0.4 mph 5 mph 87.2% 0.00 in 0 W/m2
17:19 42.9 °F 39.3 °F 29.31 in WSW 0.2 mph 5 mph 87% 0.00 in 0 W/m2
17:24 42.9 °F 39.5 °F 29.31 in WSW 0.1 mph 5 mph 87.7% 0.00 in 0 W/m2
17:29 42.9 °F 39.6 °F 29.31 in WSW 0.1 mph 5 mph 88.2% 0.00 in 0 W/m2
17:34 42.8 °F 39.7 °F 29.31 in West 0.1 mph 5 mph 88.7% 0.00 in 0 W/m2
17:39 42.6 °F 39.6 °F 29.31 in West 1.2 mph 10 mph 89% 0.00 in 0 W/m2
17:44 42.5 °F 39.5 °F 29.31 in WSW 0.9 mph 10 mph 89% 0.00 in 0 W/m2
17:49 42.3 °F 39.4 °F 29.31 in WSW 0.5 mph 10 mph 89.6% 0.00 in 0 W/m2
17:54 42.1 °F 39.4 °F 29.31 in West 1.3 mph 10 mph 90% 0.01 in 0 W/m2
17:59 42 °F 39.3 °F 29.31 in Calm   10 mph 90% 0.01 in 0 W/m2
18:04 41.9 °F 39.4 °F 29.31 in Calm   10 mph 90.9% 0.01 in 0 W/m2
18:09 41.8 °F 39.4 °F 29.31 in WNW 0.8 mph 5 mph 91% 0.01 in 0 W/m2
18:14 41.7 °F 39.3 °F 29.32 in NW 0.7 mph 5 mph 91% 0.02 in 0 W/m2
18:19 41.5 °F 39.1 °F 29.32 in WNW 1.3 mph 6 mph 91% 0.02 in 0 W/m2
18:24 41.3 °F 38.9 °F 29.32 in WNW 1.8 mph 7 mph 91% 0.02 in 0 W/m2
18:29 41.1 °F 38.7 °F 29.32 in WNW 3 mph 10 mph 91% 0.02 in 0 W/m2
18:34 40.9 °F 38.5 °F 29.32 in West 0.7 mph 10 mph 91% 0.02 in 0 W/m2
18:39 40.7 °F 38.3 °F 29.32 in WNW 2 mph 11 mph 91% 0.02 in 0 W/m2
18:44 40.5 °F 38.1 °F 29.32 in West 1.4 mph 11 mph 91% 0.02 in 0 W/m2
18:49 40.4 °F 38 °F 29.32 in WNW 0.4 mph 11 mph 91% 0.02 in 0 W/m2
18:54 40.3 °F 37.8 °F 29.32 in West 1.2 mph 11 mph 91% 0.02 in 0 W/m2
18:59 40.1 °F 37.7 °F 29.32 in West 0.3 mph 11 mph 91.1% 0.02 in 0 W/m2
19:04 40.1 °F 38 °F 29.32 in West 0.1 mph 11 mph 92% 0.02 in 0 W/m2
19:09 40 °F 37.9 °F 29.32 in WSW 1.4 mph 7 mph 92% 0.01 in 0 W/m2
19:14 39.9 °F 37.8 °F 29.32 in West 1.4 mph 7 mph 92% 0.01 in 0 W/m2
19:19 39.8 °F 37.7 °F 29.32 in West 1.7 mph 11 mph 92% 0.01 in 0 W/m2
19:24 39.7 °F 37.5 °F 29.32 in WNW 3.5 mph 12 mph 92% 0.01 in 0 W/m2
19:29 39.6 °F 37.2 °F 29.32 in WNW 5.7 mph 12 mph 91% 0.01 in 0 W/m2
19:34 39.4 °F 37 °F 29.32 in WNW 5.4 mph 15 mph 91% 0.01 in 0 W/m2
19:39 39.3 °F 36.8 °F 29.32 in WNW 5.1 mph 15 mph 90.6% 0.00 in 0 W/m2
19:44 39.2 °F 36.5 °F 29.32 in WNW 3.5 mph 15 mph 90% 0.00 in 0 W/m2
19:49 39.1 °F 36.3 °F 29.33 in West 5 mph 15 mph 89.5% 0.00 in 0 W/m2
19:54 39 °F 36 °F 29.33 in WNW 3.4 mph 15 mph 89% 0.00 in 0 W/m2
19:59 38.9 °F 35.9 °F 29.33 in WNW 3.1 mph 15 mph 89% 0.00 in 0 W/m2
20:00 38.8 °F 35.8 °F 29.33 in WNW 1 mph 15 mph 89% 0.00 in 0 W/m2
20:09 38.7 °F 35.4 °F 29.33 in WSW 1 mph 7 mph 88% 0.00 in 0 W/m2
20:13 38.6 °F 35.4 °F 29.33 in WNW 2.4 mph 15 mph 88% 0.00 in 0 W/m2
20:19 38.5 °F 35.2 °F 29.33 in West 3.9 mph 16 mph 88% 0.00 in 0 W/m2
20:24 38.3 °F 34.9 °F 29.32 in WNW 5 mph 16 mph 87.3% 0.00 in 0 W/m2
20:29 38.2 °F 34.5 °F 29.32 in WNW 4.6 mph 16 mph 86.3% 0.00 in 0 W/m2
20:34 38.2 °F 34.4 °F 29.32 in WNW 3.4 mph 16 mph 86% 0.00 in 0 W/m2
20:39 38 °F 34 °F 29.32 in WNW 4.6 mph 15 mph 85.2% 0.00 in 0 W/m2
20:44 37.9 °F 33.8 °F 29.32 in West 3.6 mph 15 mph 85% 0.00 in 0 W/m2
20:49 37.8 °F 33.7 °F 29.32 in West 4 mph 15 mph 85% 0.00 in 0 W/m2
20:54 37.7 °F 33.6 °F 29.32 in West 3.7 mph 15 mph 85% 0.00 in 0 W/m2
20:59 37.6 °F 33.6 °F 29.32 in West 2.7 mph 19 mph 85% 0.00 in 0 W/m2
21:04 37.5 °F 33.4 °F 29.32 in WSW 2.1 mph 19 mph 85% 0.00 in 0 W/m2
21:09 37.4 °F 33.3 °F 29.32 in WSW 2.9 mph 9 mph 85% 0.00 in 0 W/m2
21:14 37.3 °F 33.2 °F 29.32 in WSW 2.2 mph 9 mph 85% 0.00 in 0 W/m2
21:19 37.3 °F 33.2 °F 29.32 in WSW 2.3 mph 9 mph 85% 0.00 in 0 W/m2
21:24 37.2 °F 33.1 °F 29.32 in SW 2.7 mph 13 mph 85% 0.00 in 0 W/m2
21:29 37.1 °F 33 °F 29.32 in WSW 1.3 mph 13 mph 85% 0.00 in 0 W/m2
21:34 37 °F 33 °F 29.32 in WSW 3.7 mph 13 mph 85.3% 0.00 in 0 W/m2
21:39 36.8 °F 33.1 °F 29.32 in WSW 2.8 mph 11 mph 86% 0.00 in 0 W/m2
21:44 36.7 °F 32.9 °F 29.31 in WSW 2.2 mph 11 mph 86% 0.00 in 0 W/m2
21:49 36.6 °F 32.8 °F 29.31 in WSW 1.5 mph 11 mph 86% 0.00 in 0 W/m2
21:54 36.5 °F 32.7 °F 29.31 in West 3.2 mph 11 mph 86% 0.00 in 0 W/m2
21:59 36.4 °F 32.6 °F 29.31 in WSW 1.8 mph 11 mph 86% 0.00 in 0 W/m2
22:04 36.2 °F 32.5 °F 29.31 in WSW 2.4 mph 11 mph 86% 0.00 in 0 W/m2
22:09 36.1 °F 32.4 °F 29.31 in SW 1.7 mph 9 mph 86% 0.00 in 0 W/m2
22:14 36 °F 32.2 °F 29.31 in SW 3.3 mph 9 mph 86% 0.00 in 0 W/m2
22:18 35.9 °F 32.1 °F 29.31 in WSW 2.1 mph 9 mph 86% 0.00 in 0 W/m2
22:24 35.8 °F 32.1 °F 29.31 in WSW 2.5 mph 9 mph 86% 0.00 in 0 W/m2
22:29 35.8 °F 31.8 °F 29.31 in SW 2.2 mph 13 mph 85.2% 0.00 in 0 W/m2
22:34 35.8 °F 31.7 °F 29.31 in SW 2.2 mph 13 mph 85% 0.00 in 0 W/m2
22:39 35.8 °F 31.7 °F 29.30 in WSW 1.8 mph 9 mph 85% 0.00 in 0 W/m2
22:44 35.7 °F 31.6 °F 29.30 in WSW 1.3 mph 9 mph 85% 0.00 in 0 W/m2
22:49 35.6 °F 31.6 °F 29.31 in SW 1.3 mph 9 mph 85% 0.00 in 0 W/m2
22:54 35.6 °F 31.5 °F 29.31 in SW 1.8 mph 9 mph 85% 0.00 in 0 W/m2
22:59 35.5 °F 31.5 °F 29.31 in WSW 2.1 mph 9 mph 85% 0.00 in 0 W/m2
23:00 35.4 °F 31.4 °F 29.30 in WSW 5 mph 9 mph 85% 0.00 in 0 W/m2
23:09 35.3 °F 31.3 °F 29.31 in WSW 2 mph 10 mph 85% 0.00 in 0 W/m2
23:14 35.3 °F 31.2 °F 29.31 in WSW 0.3 mph 10 mph 85% 0.00 in 0 W/m2
23:19 35.2 °F 31.2 °F 29.31 in SW 1.6 mph 10 mph 85% 0.00 in 0 W/m2
23:24 35.1 °F 31 °F 29.30 in SW 1.6 mph 10 mph 85% 0.00 in 0 W/m2
23:29 35 °F 31.1 °F 29.30 in SW 2.5 mph 10 mph 85.5% 0.00 in 0 W/m2
23:34 34.9 °F 31.1 °F 29.31 in WSW 1 mph 10 mph 86% 0.00 in 0 W/m2
23:39 34.8 °F 30.7 °F 29.31 in West 0.8 mph 7 mph 85% 0.00 in 0 W/m2
23:44 34.7 °F 30.7 °F 29.31 in WSW 0.4 mph 7 mph 85.1% 0.00 in 0 W/m2
23:49 34.6 °F 30.5 °F 29.31 in WSW 1 mph 7 mph 85% 0.00 in 0 W/m2
23:54 34.5 °F 30.6 °F 29.31 in West 0.6 mph 9 mph 85.5% 0.00 in 0 W/m2
23:59 34.4 °F 30.6 °F 29.31 in West 0.8 mph 9 mph 86% 0.00 in 0 W/m2
Hartford County Weather
Compliments of Weather Underground - 2 mb